sensor_id;sensor_type;location;lat;lon;timestamp;temperature;humidity
12223;DHT22;6174;49.058;8.524;2022-08-06T00:01:57;22.50;67.20
12223;DHT22;6174;49.058;8.524;2022-08-06T00:04:26;22.50;67.40
12223;DHT22;6174;49.058;8.524;2022-08-06T00:06:53;22.50;66.80
12223;DHT22;6174;49.058;8.524;2022-08-06T00:09:20;22.50;66.80
12223;DHT22;6174;49.058;8.524;2022-08-06T00:11:57;22.50;65.70
12223;DHT22;6174;49.058;8.524;2022-08-06T00:14:37;22.40;65.90
12223;DHT22;6174;49.058;8.524;2022-08-06T00:17:04;22.40;66.20
12223;DHT22;6174;49.058;8.524;2022-08-06T00:19:33;22.40;66.00
12223;DHT22;6174;49.058;8.524;2022-08-06T00:22:00;22.30;65.90
12223;DHT22;6174;49.058;8.524;2022-08-06T00:24:26;22.30;65.40
12223;DHT22;6174;49.058;8.524;2022-08-06T00:26:53;22.30;65.30
12223;DHT22;6174;49.058;8.524;2022-08-06T00:29:20;22.30;65.50
12223;DHT22;6174;49.058;8.524;2022-08-06T00:31:56;22.30;65.40
12223;DHT22;6174;49.058;8.524;2022-08-06T00:34:23;22.20;66.10
12223;DHT22;6174;49.058;8.524;2022-08-06T00:36:54;22.30;65.70
12223;DHT22;6174;49.058;8.524;2022-08-06T00:39:21;22.30;65.50
12223;DHT22;6174;49.058;8.524;2022-08-06T00:41:48;22.20;65.20
12223;DHT22;6174;49.058;8.524;2022-08-06T00:44:15;22.20;65.10
12223;DHT22;6174;49.058;8.524;2022-08-06T00:46:42;22.20;65.60
12223;DHT22;6174;49.058;8.524;2022-08-06T00:49:40;22.20;65.60
12223;DHT22;6174;49.058;8.524;2022-08-06T00:52:40;22.20;66.20
12223;DHT22;6174;49.058;8.524;2022-08-06T00:55:07;22.10;66.10
12223;DHT22;6174;49.058;8.524;2022-08-06T00:57:40;22.10;67.00
12223;DHT22;6174;49.058;8.524;2022-08-06T01:00:10;22.00;66.60
12223;DHT22;6174;49.058;8.524;2022-08-06T01:02:37;22.00;67.20
12223;DHT22;6174;49.058;8.524;2022-08-06T01:05:05;22.00;67.40
12223;DHT22;6174;49.058;8.524;2022-08-06T01:07:32;21.90;67.50
12223;DHT22;6174;49.058;8.524;2022-08-06T01:10:08;21.90;67.90
12223;DHT22;6174;49.058;8.524;2022-08-06T01:12:35;22.00;67.80
12223;DHT22;6174;49.058;8.524;2022-08-06T01:15:06;22.00;67.20
12223;DHT22;6174;49.058;8.524;2022-08-06T01:17:36;21.90;67.50
12223;DHT22;6174;49.058;8.524;2022-08-06T01:20:14;21.90;67.90
12223;DHT22;6174;49.058;8.524;2022-08-06T01:23:00;21.80;67.50
12223;DHT22;6174;49.058;8.524;2022-08-06T01:25:54;21.80;67.70
12223;DHT22;6174;49.058;8.524;2022-08-06T01:28:29;21.70;68.00
12223;DHT22;6174;49.058;8.524;2022-08-06T01:31:03;21.70;68.40
12223;DHT22;6174;49.058;8.524;2022-08-06T01:33:35;21.70;68.10
12223;DHT22;6174;49.058;8.524;2022-08-06T01:36:07;21.70;67.60
12223;DHT22;6174;49.058;8.524;2022-08-06T01:38:39;21.60;68.50
12223;DHT22;6174;49.058;8.524;2022-08-06T01:41:10;21.70;68.40
12223;DHT22;6174;49.058;8.524;2022-08-06T01:43:42;21.70;68.30
12223;DHT22;6174;49.058;8.524;2022-08-06T01:46:11;21.60;68.10
12223;DHT22;6174;49.058;8.524;2022-08-06T01:48:40;21.60;68.40
12223;DHT22;6174;49.058;8.524;2022-08-06T01:51:09;21.60;68.10
12223;DHT22;6174;49.058;8.524;2022-08-06T01:53:38;21.60;68.10
12223;DHT22;6174;49.058;8.524;2022-08-06T01:56:07;21.60;68.10
12223;DHT22;6174;49.058;8.524;2022-08-06T01:58:36;21.60;68.20
12223;DHT22;6174;49.058;8.524;2022-08-06T02:01:10;21.50;67.90
12223;DHT22;6174;49.058;8.524;2022-08-06T02:03:42;21.60;68.10
12223;DHT22;6174;49.058;8.524;2022-08-06T02:06:12;21.50;68.60
12223;DHT22;6174;49.058;8.524;2022-08-06T02:08:41;21.50;68.10
12223;DHT22;6174;49.058;8.524;2022-08-06T02:11:10;21.50;68.50
12223;DHT22;6174;49.058;8.524;2022-08-06T02:13:39;21.70;68.20
12223;DHT22;6174;49.058;8.524;2022-08-06T02:16:09;21.50;68.20
12223;DHT22;6174;49.058;8.524;2022-08-06T02:18:42;21.60;68.20
12223;DHT22;6174;49.058;8.524;2022-08-06T02:21:21;21.60;68.00
12223;DHT22;6174;49.058;8.524;2022-08-06T02:23:49;21.50;68.50
12223;DHT22;6174;49.058;8.524;2022-08-06T02:26:22;21.40;68.50
12223;DHT22;6174;49.058;8.524;2022-08-06T02:28:54;21.40;68.50
12223;DHT22;6174;49.058;8.524;2022-08-06T02:31:24;21.40;68.70
12223;DHT22;6174;49.058;8.524;2022-08-06T02:33:51;21.30;68.80
12223;DHT22;6174;49.058;8.524;2022-08-06T02:36:20;21.40;69.20
12223;DHT22;6174;49.058;8.524;2022-08-06T02:38:54;21.30;69.30
12223;DHT22;6174;49.058;8.524;2022-08-06T02:41:28;21.20;69.20
12223;DHT22;6174;49.058;8.524;2022-08-06T02:43:58;21.30;69.80
12223;DHT22;6174;49.058;8.524;2022-08-06T02:46:36;21.10;69.90
12223;DHT22;6174;49.058;8.524;2022-08-06T02:49:10;21.10;71.20
12223;DHT22;6174;49.058;8.524;2022-08-06T02:51:44;21.10;71.00
12223;DHT22;6174;49.058;8.524;2022-08-06T02:54:15;21.10;71.40
12223;DHT22;6174;49.058;8.524;2022-08-06T02:56:45;21.00;71.80
12223;DHT22;6174;49.058;8.524;2022-08-06T02:59:14;20.90;71.60
12223;DHT22;6174;49.058;8.524;2022-08-06T03:01:48;20.90;71.30
12223;DHT22;6174;49.058;8.524;2022-08-06T03:04:16;20.90;71.50
12223;DHT22;6174;49.058;8.524;2022-08-06T03:06:46;20.80;71.40
12223;DHT22;6174;49.058;8.524;2022-08-06T03:09:15;20.70;72.10
12223;DHT22;6174;49.058;8.524;2022-08-06T03:11:45;20.70;72.20
12223;DHT22;6174;49.058;8.524;2022-08-06T03:14:13;20.60;72.90
12223;DHT22;6174;49.058;8.524;2022-08-06T03:16:42;20.50;73.60
12223;DHT22;6174;49.058;8.524;2022-08-06T03:19:11;20.50;73.70
12223;DHT22;6174;49.058;8.524;2022-08-06T03:21:40;20.50;74.00
12223;DHT22;6174;49.058;8.524;2022-08-06T03:24:08;20.50;74.40
12223;DHT22;6174;49.058;8.524;2022-08-06T03:26:36;20.40;74.30
12223;DHT22;6174;49.058;8.524;2022-08-06T03:29:04;20.40;75.00
12223;DHT22;6174;49.058;8.524;2022-08-06T03:31:31;20.30;75.60
12223;DHT22;6174;49.058;8.524;2022-08-06T03:34:01;20.20;75.60
12223;DHT22;6174;49.058;8.524;2022-08-06T03:36:28;20.20;76.20
12223;DHT22;6174;49.058;8.524;2022-08-06T03:38:57;20.10;76.80
12223;DHT22;6174;49.058;8.524;2022-08-06T03:41:25;20.10;76.70
12223;DHT22;6174;49.058;8.524;2022-08-06T03:43:53;20.10;77.20
12223;DHT22;6174;49.058;8.524;2022-08-06T03:46:24;20.10;77.60
12223;DHT22;6174;49.058;8.524;2022-08-06T03:48:53;20.10;78.00
12223;DHT22;6174;49.058;8.524;2022-08-06T03:51:24;20.00;78.60
12223;DHT22;6174;49.058;8.524;2022-08-06T03:53:53;20.00;79.10
12223;DHT22;6174;49.058;8.524;2022-08-06T03:56:23;20.00;78.10
12223;DHT22;6174;49.058;8.524;2022-08-06T03:58:51;20.00;78.20
12223;DHT22;6174;49.058;8.524;2022-08-06T04:01:22;20.00;78.50
12223;DHT22;6174;49.058;8.524;2022-08-06T04:03:50;19.80;78.50
12223;DHT22;6174;49.058;8.524;2022-08-06T04:06:18;19.90;78.90
12223;DHT22;6174;49.058;8.524;2022-08-06T04:08:48;19.80;79.20
12223;DHT22;6174;49.058;8.524;2022-08-06T04:11:15;19.60;79.60
12223;DHT22;6174;49.058;8.524;2022-08-06T04:13:43;19.60;80.20
12223;DHT22;6174;49.058;8.524;2022-08-06T04:16:12;19.60;80.30
12223;DHT22;6174;49.058;8.524;2022-08-06T04:18:40;19.60;80.70
12223;DHT22;6174;49.058;8.524;2022-08-06T04:21:10;19.60;80.70
12223;DHT22;6174;49.058;8.524;2022-08-06T04:23:38;19.50;81.20
12223;DHT22;6174;49.058;8.524;2022-08-06T04:26:07;19.60;81.60
12223;DHT22;6174;49.058;8.524;2022-08-06T04:28:36;19.60;81.20
12223;DHT22;6174;49.058;8.524;2022-08-06T04:31:08;19.50;80.90
12223;DHT22;6174;49.058;8.524;2022-08-06T04:33:37;19.60;80.80
12223;DHT22;6174;49.058;8.524;2022-08-06T04:36:07;19.50;80.60
12223;DHT22;6174;49.058;8.524;2022-08-06T04:38:34;19.50;81.00
12223;DHT22;6174;49.058;8.524;2022-08-06T04:41:02;19.40;81.40
12223;DHT22;6174;49.058;8.524;2022-08-06T04:43:30;19.40;81.90
12223;DHT22;6174;49.058;8.524;2022-08-06T04:45:58;19.20;82.40
12223;DHT22;6174;49.058;8.524;2022-08-06T04:48:25;19.20;82.60
12223;DHT22;6174;49.058;8.524;2022-08-06T04:50:53;19.20;82.70
12223;DHT22;6174;49.058;8.524;2022-08-06T04:53:20;19.20;82.90
12223;DHT22;6174;49.058;8.524;2022-08-06T04:55:47;19.30;82.40
12223;DHT22;6174;49.058;8.524;2022-08-06T04:58:16;19.30;82.60
12223;DHT22;6174;49.058;8.524;2022-08-06T05:00:46;19.30;82.60
12223;DHT22;6174;49.058;8.524;2022-08-06T05:03:13;19.30;82.40
12223;DHT22;6174;49.058;8.524;2022-08-06T05:05:45;19.30;82.50
12223;DHT22;6174;49.058;8.524;2022-08-06T05:08:13;19.30;82.70
12223;DHT22;6174;49.058;8.524;2022-08-06T05:10:45;19.30;82.80
12223;DHT22;6174;49.058;8.524;2022-08-06T05:13:14;19.30;83.10
12223;DHT22;6174;49.058;8.524;2022-08-06T05:15:45;19.20;83.30
12223;DHT22;6174;49.058;8.524;2022-08-06T05:18:19;19.20;82.90
12223;DHT22;6174;49.058;8.524;2022-08-06T05:20:49;19.20;82.70
12223;DHT22;6174;49.058;8.524;2022-08-06T05:23:20;19.30;83.10
12223;DHT22;6174;49.058;8.524;2022-08-06T05:25:49;19.30;83.50
12223;DHT22;6174;49.058;8.524;2022-08-06T05:28:16;19.30;83.00
12223;DHT22;6174;49.058;8.524;2022-08-06T05:30:45;19.40;83.10
12223;DHT22;6174;49.058;8.524;2022-08-06T05:33:22;19.40;82.90
12223;DHT22;6174;49.058;8.524;2022-08-06T05:35:49;19.30;82.60
12223;DHT22;6174;49.058;8.524;2022-08-06T05:38:16;19.40;82.20
12223;DHT22;6174;49.058;8.524;2022-08-06T05:40:42;19.40;81.90
12223;DHT22;6174;49.058;8.524;2022-08-06T05:43:09;19.30;81.90
12223;DHT22;6174;49.058;8.524;2022-08-06T05:45:39;19.30;81.70
12223;DHT22;6174;49.058;8.524;2022-08-06T05:48:09;19.20;81.30
12223;DHT22;6174;49.058;8.524;2022-08-06T05:50:42;19.20;82.10
12223;DHT22;6174;49.058;8.524;2022-08-06T05:53:12;19.10;82.10
12223;DHT22;6174;49.058;8.524;2022-08-06T05:55:45;19.20;81.90
12223;DHT22;6174;49.058;8.524;2022-08-06T05:58:19;19.20;82.10
12223;DHT22;6174;49.058;8.524;2022-08-06T06:00:47;19.20;82.00
12223;DHT22;6174;49.058;8.524;2022-08-06T06:03:16;19.20;82.10
12223;DHT22;6174;49.058;8.524;2022-08-06T06:05:44;19.30;81.60
12223;DHT22;6174;49.058;8.524;2022-08-06T06:08:11;19.30;81.60
12223;DHT22;6174;49.058;8.524;2022-08-06T06:10:40;19.40;81.60
12223;DHT22;6174;49.058;8.524;2022-08-06T06:13:10;19.50;80.70
12223;DHT22;6174;49.058;8.524;2022-08-06T06:15:42;19.60;80.20
12223;DHT22;6174;49.058;8.524;2022-08-06T06:18:21;19.70;80.40
12223;DHT22;6174;49.058;8.524;2022-08-06T06:20:56;19.70;79.70
12223;DHT22;6174;49.058;8.524;2022-08-06T06:23:29;19.80;79.20
12223;DHT22;6174;49.058;8.524;2022-08-06T06:26:06;19.80;78.50
12223;DHT22;6174;49.058;8.524;2022-08-06T06:28:55;19.80;79.90
12223;DHT22;6174;49.058;8.524;2022-08-06T06:31:28;19.90;79.90
12223;DHT22;6174;49.058;8.524;2022-08-06T06:34:04;20.00;79.70
12223;DHT22;6174;49.058;8.524;2022-08-06T06:36:39;20.10;79.30
12223;DHT22;6174;49.058;8.524;2022-08-06T06:39:18;20.20;79.50
12223;DHT22;6174;49.058;8.524;2022-08-06T06:41:51;20.30;79.40
12223;DHT22;6174;49.058;8.524;2022-08-06T06:44:23;20.40;77.60
12223;DHT22;6174;49.058;8.524;2022-08-06T06:47:03;20.40;77.10
12223;DHT22;6174;49.058;8.524;2022-08-06T06:49:37;20.50;77.50
12223;DHT22;6174;49.058;8.524;2022-08-06T06:52:10;20.70;76.70
12223;DHT22;6174;49.058;8.524;2022-08-06T06:54:41;20.90;76.70
12223;DHT22;6174;49.058;8.524;2022-08-06T06:57:11;21.10;76.10
12223;DHT22;6174;49.058;8.524;2022-08-06T06:59:43;21.20;75.00
12223;DHT22;6174;49.058;8.524;2022-08-06T07:02:16;21.30;74.80
12223;DHT22;6174;49.058;8.524;2022-08-06T07:04:47;21.40;73.70
12223;DHT22;6174;49.058;8.524;2022-08-06T07:07:16;21.50;73.30
12223;DHT22;6174;49.058;8.524;2022-08-06T07:09:44;21.50;73.20
12223;DHT22;6174;49.058;8.524;2022-08-06T07:12:14;21.70;73.50
12223;DHT22;6174;49.058;8.524;2022-08-06T07:14:41;21.90;72.30
12223;DHT22;6174;49.058;8.524;2022-08-06T07:17:09;22.20;71.50
12223;DHT22;6174;49.058;8.524;2022-08-06T07:19:38;22.40;70.20
12223;DHT22;6174;49.058;8.524;2022-08-06T07:22:08;22.70;69.20
12223;DHT22;6174;49.058;8.524;2022-08-06T07:24:36;22.90;69.40
12223;DHT22;6174;49.058;8.524;2022-08-06T07:27:04;23.10;68.80
12223;DHT22;6174;49.058;8.524;2022-08-06T07:29:31;23.10;67.00
12223;DHT22;6174;49.058;8.524;2022-08-06T07:31:59;23.20;66.60
12223;DHT22;6174;49.058;8.524;2022-08-06T07:34:26;23.20;66.70
12223;DHT22;6174;49.058;8.524;2022-08-06T07:36:54;23.20;66.40
12223;DHT22;6174;49.058;8.524;2022-08-06T07:39:26;23.20;66.70
12223;DHT22;6174;49.058;8.524;2022-08-06T07:41:55;23.10;67.20
12223;DHT22;6174;49.058;8.524;2022-08-06T07:44:26;23.10;65.70
12223;DHT22;6174;49.058;8.524;2022-08-06T07:46:57;23.00;65.80
12223;DHT22;6174;49.058;8.524;2022-08-06T07:49:36;23.00;64.30
12223;DHT22;6174;49.058;8.524;2022-08-06T07:52:06;23.00;62.60
12223;DHT22;6174;49.058;8.524;2022-08-06T07:54:36;22.90;62.90
12223;DHT22;6174;49.058;8.524;2022-08-06T07:57:04;22.90;61.90
12223;DHT22;6174;49.058;8.524;2022-08-06T07:59:32;22.80;61.70
12223;DHT22;6174;49.058;8.524;2022-08-06T08:02:00;22.80;61.70
12223;DHT22;6174;49.058;8.524;2022-08-06T08:04:29;22.90;59.90
12223;DHT22;6174;49.058;8.524;2022-08-06T08:07:14;23.00;60.60
12223;DHT22;6174;49.058;8.524;2022-08-06T08:09:43;22.90;60.70
12223;DHT22;6174;49.058;8.524;2022-08-06T08:12:11;22.90;60.20
12223;DHT22;6174;49.058;8.524;2022-08-06T08:14:39;23.00;58.90
12223;DHT22;6174;49.058;8.524;2022-08-06T08:17:09;23.00;57.80
12223;DHT22;6174;49.058;8.524;2022-08-06T08:19:36;22.90;58.40
12223;DHT22;6174;49.058;8.524;2022-08-06T08:22:05;22.90;58.20
12223;DHT22;6174;49.058;8.524;2022-08-06T08:24:34;22.80;58.70
12223;DHT22;6174;49.058;8.524;2022-08-06T08:27:03;22.80;59.00
12223;DHT22;6174;49.058;8.524;2022-08-06T08:29:33;22.80;58.80
12223;DHT22;6174;49.058;8.524;2022-08-06T08:32:01;22.80;58.20
12223;DHT22;6174;49.058;8.524;2022-08-06T08:34:28;22.80;58.80
12223;DHT22;6174;49.058;8.524;2022-08-06T08:36:56;22.90;58.90
12223;DHT22;6174;49.058;8.524;2022-08-06T08:39:23;23.00;58.90
12223;DHT22;6174;49.058;8.524;2022-08-06T08:41:53;23.10;58.80
12223;DHT22;6174;49.058;8.524;2022-08-06T08:44:25;23.10;56.80
12223;DHT22;6174;49.058;8.524;2022-08-06T08:46:56;23.00;57.60
12223;DHT22;6174;49.058;8.524;2022-08-06T08:49:27;23.00;57.40
12223;DHT22;6174;49.058;8.524;2022-08-06T08:51:58;23.00;57.60
12223;DHT22;6174;49.058;8.524;2022-08-06T08:54:27;23.10;57.60
12223;DHT22;6174;49.058;8.524;2022-08-06T08:56:55;23.20;58.30
12223;DHT22;6174;49.058;8.524;2022-08-06T08:59:24;23.30;56.20
12223;DHT22;6174;49.058;8.524;2022-08-06T09:01:52;23.30;55.40
12223;DHT22;6174;49.058;8.524;2022-08-06T09:04:19;23.30;56.10
12223;DHT22;6174;49.058;8.524;2022-08-06T09:06:46;23.40;56.90
12223;DHT22;6174;49.058;8.524;2022-08-06T09:09:14;23.40;55.90
12223;DHT22;6174;49.058;8.524;2022-08-06T09:11:41;23.30;55.40
12223;DHT22;6174;49.058;8.524;2022-08-06T09:14:08;23.30;56.10
12223;DHT22;6174;49.058;8.524;2022-08-06T09:16:37;23.20;55.90
12223;DHT22;6174;49.058;8.524;2022-08-06T09:19:04;23.10;56.10
12223;DHT22;6174;49.058;8.524;2022-08-06T09:21:32;23.20;56.20
12223;DHT22;6174;49.058;8.524;2022-08-06T09:23:59;23.30;55.80
12223;DHT22;6174;49.058;8.524;2022-08-06T09:26:26;23.20;55.30
12223;DHT22;6174;49.058;8.524;2022-08-06T09:28:53;23.30;56.80
12223;DHT22;6174;49.058;8.524;2022-08-06T09:31:20;23.20;56.30
12223;DHT22;6174;49.058;8.524;2022-08-06T09:33:56;23.20;56.60
12223;DHT22;6174;49.058;8.524;2022-08-06T09:36:24;23.20;54.90
12223;DHT22;6174;49.058;8.524;2022-08-06T09:38:52;23.10;54.90
12223;DHT22;6174;49.058;8.524;2022-08-06T09:41:20;23.00;56.20
12223;DHT22;6174;49.058;8.524;2022-08-06T09:43:50;23.20;55.90
12223;DHT22;6174;49.058;8.524;2022-08-06T09:46:18;23.40;55.10
12223;DHT22;6174;49.058;8.524;2022-08-06T09:49:03;23.40;55.00
12223;DHT22;6174;49.058;8.524;2022-08-06T09:51:30;23.40;55.00
12223;DHT22;6174;49.058;8.524;2022-08-06T09:54:01;23.30;53.40
12223;DHT22;6174;49.058;8.524;2022-08-06T09:56:28;23.10;54.70
12223;DHT22;6174;49.058;8.524;2022-08-06T09:58:57;23.10;54.10
12223;DHT22;6174;49.058;8.524;2022-08-06T10:01:25;23.10;55.00
12223;DHT22;6174;49.058;8.524;2022-08-06T10:03:54;23.40;55.00
12223;DHT22;6174;49.058;8.524;2022-08-06T10:06:23;23.50;55.70
12223;DHT22;6174;49.058;8.524;2022-08-06T10:09:06;23.70;54.40
12223;DHT22;6174;49.058;8.524;2022-08-06T10:11:36;24.00;52.30
12223;DHT22;6174;49.058;8.524;2022-08-06T10:14:03;24.00;51.80
12223;DHT22;6174;49.058;8.524;2022-08-06T10:16:30;24.00;53.60
12223;DHT22;6174;49.058;8.524;2022-08-06T10:18:58;23.90;53.00
12223;DHT22;6174;49.058;8.524;2022-08-06T10:21:28;24.00;53.30
12223;DHT22;6174;49.058;8.524;2022-08-06T10:24:02;24.20;53.00
12223;DHT22;6174;49.058;8.524;2022-08-06T10:26:31;24.20;51.40
12223;DHT22;6174;49.058;8.524;2022-08-06T10:29:01;24.20;51.90
12223;DHT22;6174;49.058;8.524;2022-08-06T10:31:29;24.20;51.80
12223;DHT22;6174;49.058;8.524;2022-08-06T10:34:00;24.20;52.00
12223;DHT22;6174;49.058;8.524;2022-08-06T10:36:36;24.20;51.80
12223;DHT22;6174;49.058;8.524;2022-08-06T10:39:06;24.30;52.60
12223;DHT22;6174;49.058;8.524;2022-08-06T10:41:33;24.40;51.30
12223;DHT22;6174;49.058;8.524;2022-08-06T10:44:05;24.50;51.70
12223;DHT22;6174;49.058;8.524;2022-08-06T10:46:32;24.50;51.60
12223;DHT22;6174;49.058;8.524;2022-08-06T10:48:59;24.40;52.60
12223;DHT22;6174;49.058;8.524;2022-08-06T10:51:31;24.30;51.80
12223;DHT22;6174;49.058;8.524;2022-08-06T10:53:58;24.30;51.90
12223;DHT22;6174;49.058;8.524;2022-08-06T10:56:26;24.40;52.10
12223;DHT22;6174;49.058;8.524;2022-08-06T10:58:53;24.60;51.90
12223;DHT22;6174;49.058;8.524;2022-08-06T11:01:30;24.70;51.30
12223;DHT22;6174;49.058;8.524;2022-08-06T11:04:12;24.90;51.00
12223;DHT22;6174;49.058;8.524;2022-08-06T11:07:11;25.00;50.80
12223;DHT22;6174;49.058;8.524;2022-08-06T11:09:57;25.10;49.70
12223;DHT22;6174;49.058;8.524;2022-08-06T11:12:42;25.00;50.00
12223;DHT22;6174;49.058;8.524;2022-08-06T11:15:10;25.10;50.70
12223;DHT22;6174;49.058;8.524;2022-08-06T11:17:45;25.10;51.20
12223;DHT22;6174;49.058;8.524;2022-08-06T11:20:34;25.20;50.00
12223;DHT22;6174;49.058;8.524;2022-08-06T11:23:05;25.30;48.80
12223;DHT22;6174;49.058;8.524;2022-08-06T11:25:37;25.20;49.60
12223;DHT22;6174;49.058;8.524;2022-08-06T11:28:04;25.10;49.50
12223;DHT22;6174;49.058;8.524;2022-08-06T11:30:40;25.10;50.20
12223;DHT22;6174;49.058;8.524;2022-08-06T11:33:08;25.10;49.60
12223;DHT22;6174;49.058;8.524;2022-08-06T11:35:47;25.10;48.90
12223;DHT22;6174;49.058;8.524;2022-08-06T11:41:08;24.80;51.10
12223;DHT22;6174;49.058;8.524;2022-08-06T11:44:03;24.90;50.60
12223;DHT22;6174;49.058;8.524;2022-08-06T11:46:32;25.00;49.60
12223;DHT22;6174;49.058;8.524;2022-08-06T11:49:21;25.20;48.50
12223;DHT22;6174;49.058;8.524;2022-08-06T11:51:51;25.10;49.70
12223;DHT22;6174;49.058;8.524;2022-08-06T11:54:21;25.20;49.30
12223;DHT22;6174;49.058;8.524;2022-08-06T11:57:17;25.30;48.50
12223;DHT22;6174;49.058;8.524;2022-08-06T11:59:46;25.40;48.60
12223;DHT22;6174;49.058;8.524;2022-08-06T12:02:16;25.40;47.80
12223;DHT22;6174;49.058;8.524;2022-08-06T12:04:44;25.50;48.80
12223;DHT22;6174;49.058;8.524;2022-08-06T12:07:17;25.40;47.00
12223;DHT22;6174;49.058;8.524;2022-08-06T12:09:47;25.40;48.00
12223;DHT22;6174;49.058;8.524;2022-08-06T12:12:34;25.50;46.80
12223;DHT22;6174;49.058;8.524;2022-08-06T12:15:09;25.50;48.20
12223;DHT22;6174;49.058;8.524;2022-08-06T12:18:01;25.50;47.80
12223;DHT22;6174;49.058;8.524;2022-08-06T12:20:29;25.60;47.50
12223;DHT22;6174;49.058;8.524;2022-08-06T12:22:57;25.60;47.90
12223;DHT22;6174;49.058;8.524;2022-08-06T12:25:31;25.60;47.20
12223;DHT22;6174;49.058;8.524;2022-08-06T12:27:59;25.70;49.30
12223;DHT22;6174;49.058;8.524;2022-08-06T12:30:26;25.80;47.70
12223;DHT22;6174;49.058;8.524;2022-08-06T12:32:59;25.80;47.00
12223;DHT22;6174;49.058;8.524;2022-08-06T12:35:26;25.90;47.00
12223;DHT22;6174;49.058;8.524;2022-08-06T12:37:53;25.90;46.60
12223;DHT22;6174;49.058;8.524;2022-08-06T12:40:21;25.90;46.70
12223;DHT22;6174;49.058;8.524;2022-08-06T12:42:54;25.90;47.90
12223;DHT22;6174;49.058;8.524;2022-08-06T12:45:22;25.90;45.60
12223;DHT22;6174;49.058;8.524;2022-08-06T12:47:56;25.90;46.10
12223;DHT22;6174;49.058;8.524;2022-08-06T12:50:25;26.00;46.90
12223;DHT22;6174;49.058;8.524;2022-08-06T12:53:02;26.00;47.20
12223;DHT22;6174;49.058;8.524;2022-08-06T12:55:30;26.10;47.10
12223;DHT22;6174;49.058;8.524;2022-08-06T12:57:59;26.20;44.40
12223;DHT22;6174;49.058;8.524;2022-08-06T13:00:28;26.10;46.00
12223;DHT22;6174;49.058;8.524;2022-08-06T13:02:55;26.10;45.40
12223;DHT22;6174;49.058;8.524;2022-08-06T13:05:24;26.10;46.00
12223;DHT22;6174;49.058;8.524;2022-08-06T13:07:54;26.20;46.00
12223;DHT22;6174;49.058;8.524;2022-08-06T13:10:21;26.30;46.90
12223;DHT22;6174;49.058;8.524;2022-08-06T13:12:53;26.30;45.10
12223;DHT22;6174;49.058;8.524;2022-08-06T13:15:22;26.30;45.60
12223;DHT22;6174;49.058;8.524;2022-08-06T13:18:04;26.40;45.40
12223;DHT22;6174;49.058;8.524;2022-08-06T13:20:38;26.50;47.10
12223;DHT22;6174;49.058;8.524;2022-08-06T13:23:05;26.60;45.10
12223;DHT22;6174;49.058;8.524;2022-08-06T13:25:42;26.60;45.90
12223;DHT22;6174;49.058;8.524;2022-08-06T13:28:10;26.70;46.30
12223;DHT22;6174;49.058;8.524;2022-08-06T13:30:39;26.80;43.40
12223;DHT22;6174;49.058;8.524;2022-08-06T13:33:14;26.80;44.00
12223;DHT22;6174;49.058;8.524;2022-08-06T13:35:41;26.80;45.80
12223;DHT22;6174;49.058;8.524;2022-08-06T13:38:08;26.90;44.20
12223;DHT22;6174;49.058;8.524;2022-08-06T13:40:40;26.90;44.60
12223;DHT22;6174;49.058;8.524;2022-08-06T13:43:09;26.90;44.10
12223;DHT22;6174;49.058;8.524;2022-08-06T13:45:38;27.00;43.70
12223;DHT22;6174;49.058;8.524;2022-08-06T13:48:07;27.00;44.00
12223;DHT22;6174;49.058;8.524;2022-08-06T13:50:36;26.90;42.70
12223;DHT22;6174;49.058;8.524;2022-08-06T13:53:05;26.80;43.90
12223;DHT22;6174;49.058;8.524;2022-08-06T13:55:32;26.80;42.80
12223;DHT22;6174;49.058;8.524;2022-08-06T13:57:59;26.80;43.50
12223;DHT22;6174;49.058;8.524;2022-08-06T14:00:26;26.80;43.30
12223;DHT22;6174;49.058;8.524;2022-08-06T14:02:55;26.80;43.60
12223;DHT22;6174;49.058;8.524;2022-08-06T14:05:22;26.90;43.70
12223;DHT22;6174;49.058;8.524;2022-08-06T14:07:49;27.00;44.70
12223;DHT22;6174;49.058;8.524;2022-08-06T14:10:16;27.10;43.70
12223;DHT22;6174;49.058;8.524;2022-08-06T14:12:43;27.20;44.30
12223;DHT22;6174;49.058;8.524;2022-08-06T14:15:31;27.10;44.30
12223;DHT22;6174;49.058;8.524;2022-08-06T14:17:59;27.10;44.20
12223;DHT22;6174;49.058;8.524;2022-08-06T14:20:26;27.10;44.30
12223;DHT22;6174;49.058;8.524;2022-08-06T14:22:54;27.30;43.30
12223;DHT22;6174;49.058;8.524;2022-08-06T14:25:22;27.30;43.10
12223;DHT22;6174;49.058;8.524;2022-08-06T14:27:49;27.30;42.80
12223;DHT22;6174;49.058;8.524;2022-08-06T14:30:16;27.30;42.50
12223;DHT22;6174;49.058;8.524;2022-08-06T14:32:43;27.30;43.00
12223;DHT22;6174;49.058;8.524;2022-08-06T14:35:12;27.40;42.10
12223;DHT22;6174;49.058;8.524;2022-08-06T14:37:39;27.50;40.70
12223;DHT22;6174;49.058;8.524;2022-08-06T14:40:09;27.50;41.70
12223;DHT22;6174;49.058;8.524;2022-08-06T14:42:36;27.60;42.20
12223;DHT22;6174;49.058;8.524;2022-08-06T14:45:20;27.70;42.40
12223;DHT22;6174;49.058;8.524;2022-08-06T14:47:47;27.60;43.00
12223;DHT22;6174;49.058;8.524;2022-08-06T14:50:15;27.70;41.80
12223;DHT22;6174;49.058;8.524;2022-08-06T14:52:43;27.80;42.10
12223;DHT22;6174;49.058;8.524;2022-08-06T14:55:11;27.60;41.90
12223;DHT22;6174;49.058;8.524;2022-08-06T14:57:39;27.50;41.10
12223;DHT22;6174;49.058;8.524;2022-08-06T15:00:08;27.40;41.00
12223;DHT22;6174;49.058;8.524;2022-08-06T15:02:35;27.30;41.30
12223;DHT22;6174;49.058;8.524;2022-08-06T15:05:03;27.10;41.60
12223;DHT22;6174;49.058;8.524;2022-08-06T15:07:31;26.90;41.40
12223;DHT22;6174;49.058;8.524;2022-08-06T15:09:58;26.80;41.70
12223;DHT22;6174;49.058;8.524;2022-08-06T15:12:24;26.70;43.40
12223;DHT22;6174;49.058;8.524;2022-08-06T15:14:51;26.60;43.30
12223;DHT22;6174;49.058;8.524;2022-08-06T15:17:18;26.60;42.60
12223;DHT22;6174;49.058;8.524;2022-08-06T15:19:44;26.60;43.50
12223;DHT22;6174;49.058;8.524;2022-08-06T15:22:11;26.50;41.80
12223;DHT22;6174;49.058;8.524;2022-08-06T15:24:39;26.50;42.60
12223;DHT22;6174;49.058;8.524;2022-08-06T15:27:06;26.50;43.00
12223;DHT22;6174;49.058;8.524;2022-08-06T15:29:33;26.50;42.10
12223;DHT22;6174;49.058;8.524;2022-08-06T15:32:00;26.40;42.90
12223;DHT22;6174;49.058;8.524;2022-08-06T15:34:26;26.30;43.80
12223;DHT22;6174;49.058;8.524;2022-08-06T15:36:53;26.30;42.60
12223;DHT22;6174;49.058;8.524;2022-08-06T15:39:20;26.30;42.50
12223;DHT22;6174;49.058;8.524;2022-08-06T15:41:48;26.20;42.90
12223;DHT22;6174;49.058;8.524;2022-08-06T15:44:15;26.20;43.10
12223;DHT22;6174;49.058;8.524;2022-08-06T15:46:42;26.20;43.10
12223;DHT22;6174;49.058;8.524;2022-08-06T15:49:09;26.20;42.70
12223;DHT22;6174;49.058;8.524;2022-08-06T15:51:35;26.20;42.10
12223;DHT22;6174;49.058;8.524;2022-08-06T15:54:02;26.20;41.90
12223;DHT22;6174;49.058;8.524;2022-08-06T15:56:29;26.20;43.10
12223;DHT22;6174;49.058;8.524;2022-08-06T15:58:58;26.20;41.60
12223;DHT22;6174;49.058;8.524;2022-08-06T16:01:25;26.00;43.00
12223;DHT22;6174;49.058;8.524;2022-08-06T16:03:55;26.00;42.90
12223;DHT22;6174;49.058;8.524;2022-08-06T16:06:22;26.10;43.20
12223;DHT22;6174;49.058;8.524;2022-08-06T16:08:49;26.10;41.10